createdAt,value
2023-08-12T11:00:31.410Z,6.55
2023-08-12T11:03:37.907Z,7.32
2023-08-12T11:06:47.209Z,5.32
2023-08-12T11:09:56.341Z,8.60
2023-08-12T11:12:59.435Z,6.97
2023-08-12T11:16:10.922Z,6.28
2023-08-12T11:19:12.718Z,8.40
2023-08-12T11:22:15.265Z,6.07
2023-08-12T11:25:19.145Z,6.55
2023-08-12T11:28:22.164Z,6.38
2023-08-12T11:31:23.975Z,6.97
2023-08-12T11:34:25.728Z,5.43
2023-08-12T11:37:27.563Z,6.65
2023-08-12T11:40:30.261Z,8.85
2023-08-12T11:43:35.241Z,5.82
2023-08-12T11:46:37.086Z,5.85
2023-08-12T11:49:38.709Z,5.82
2023-08-12T11:52:41.161Z,5.70
2023-08-12T11:55:43.430Z,4.47
2023-08-12T11:58:52.968Z,4.43
2023-08-12T12:01:55.932Z,5.18
2023-08-12T12:04:57.572Z,4.43
2023-08-12T12:08:02.058Z,6.15
2023-08-12T12:11:07.317Z,4.07
2023-08-12T12:14:10.224Z,4.63
2023-08-12T12:17:13.663Z,4.38
2023-08-12T12:20:15.472Z,4.78
2023-08-12T12:23:17.166Z,5.05
2023-08-12T12:26:18.777Z,4.10
2023-08-12T12:29:20.408Z,4.40
2023-08-12T12:32:22.408Z,4.75
2023-08-12T12:35:25.036Z,4.68
2023-08-12T12:38:27.585Z,4.63
2023-08-12T12:41:29.346Z,5.57
2023-08-12T12:44:30.899Z,6.70
2023-08-12T12:47:32.516Z,5.90
2023-08-12T12:50:34.117Z,4.28
2023-08-12T12:53:35.707Z,4.72
2023-08-12T12:56:37.285Z,3.92
2023-08-12T12:59:38.867Z,10.55
2023-08-12T13:02:43.056Z,3.78
2023-08-12T13:05:45.209Z,4.35
2023-08-12T13:08:46.862Z,3.50
2023-08-12T13:11:48.444Z,5.22
2023-08-12T13:14:49.982Z,3.50
2023-08-12T13:17:51.607Z,2.90
2023-08-12T13:20:53.304Z,3.97
2023-08-12T13:23:56.335Z,2.97
2023-08-12T13:26:59.404Z,3.33
2023-08-12T13:30:01.962Z,3.20
2023-08-12T13:33:04.514Z,2.63
2023-08-12T13:36:06.228Z,5.18
2023-08-12T13:39:07.861Z,3.35
2023-08-12T13:42:09.423Z,2.85
2023-08-12T13:45:12.278Z,1.60
2023-08-12T13:48:13.781Z,2.30
2023-08-12T13:51:15.333Z,3.70
2023-08-12T13:54:16.986Z,2.95
2023-08-12T13:57:18.558Z,3.13
2023-08-12T14:00:20.304Z,1.52
2023-08-12T14:03:21.930Z,2.40
2023-08-12T14:06:23.558Z,2.65
2023-08-12T14:09:25.108Z,5.45
2023-08-12T14:12:26.933Z,1.40
2023-08-12T14:15:28.602Z,1.38
2023-08-12T14:18:30.119Z,1.30
2023-08-12T14:21:31.626Z,1.30
2023-08-12T14:24:33.238Z,2.78
2023-08-12T14:27:34.790Z,1.73
2023-08-12T14:30:37.806Z,2.13
2023-08-12T14:33:39.508Z,2.47
2023-08-12T14:36:41.064Z,1.60
2023-08-12T14:39:42.621Z,2.42
2023-08-12T14:42:44.245Z,1.58
2023-08-12T14:45:46.871Z,4.90
2023-08-12T14:48:48.406Z,1.55
2023-08-12T14:51:49.965Z,1.10
2023-08-12T14:54:51.837Z,3.88
2023-08-12T14:57:53.411Z,5.88
2023-08-12T15:00:55.106Z,2.65
2023-08-12T15:03:56.886Z,2.08
2023-08-12T15:06:58.769Z,2.90
2023-08-12T15:10:00.460Z,2.38
2023-08-12T15:13:02.161Z,1.75
2023-08-12T15:16:04.009Z,3.75
2023-08-12T15:19:05.550Z,2.20
2023-08-12T15:22:07.148Z,2.03
2023-08-12T15:25:09.603Z,2.65
2023-08-12T15:28:11.248Z,1.48
2023-08-12T15:31:14.049Z,3.97
2023-08-12T15:34:15.664Z,1.80
2023-08-12T15:37:17.217Z,2.47
2023-08-12T15:40:20.999Z,1.40
2023-08-12T15:43:22.577Z,2.92
2023-08-12T15:46:24.171Z,1.83
2023-08-12T15:49:25.883Z,1.98
2023-08-12T15:52:27.626Z,2.55
2023-08-12T15:55:29.166Z,1.33
2023-08-12T15:58:30.753Z,3.10
2023-08-12T16:01:33.216Z,2.35
2023-08-12T16:04:34.837Z,1.80
2023-08-12T16:07:36.692Z,1.83
2023-08-12T16:10:39.103Z,1.60
2023-08-12T16:13:40.775Z,2.05
2023-08-12T16:16:42.510Z,2.83
2023-08-12T16:19:46.555Z,3.97
2023-08-12T16:22:48.281Z,2.35
2023-08-12T16:25:50.011Z,2.10
2023-08-12T16:28:51.742Z,1.90
2023-08-12T16:31:53.383Z,2.15
2023-08-12T16:34:54.984Z,2.63
2023-08-12T16:37:56.601Z,2.28
2023-08-12T16:40:58.252Z,2.95
2023-08-12T16:43:59.807Z,2.67
2023-08-12T16:47:01.647Z,2.03
2023-08-12T16:50:03.420Z,2.10
2023-08-12T16:53:05.064Z,2.72
2023-08-12T16:56:06.699Z,2.13
2023-08-12T16:59:08.299Z,2.90
2023-08-12T17:02:10.400Z,3.78
2023-08-12T17:05:12.092Z,2.90
2023-08-12T17:08:13.667Z,3.00
2023-08-12T17:11:15.373Z,3.95
2023-08-12T17:14:16.955Z,2.80
2023-08-12T17:17:18.535Z,2.97
2023-08-12T17:20:20.187Z,3.75
2023-08-12T17:23:21.806Z,2.40
2023-08-12T17:26:23.454Z,3.13
2023-08-12T17:29:25.204Z,3.90
2023-08-12T17:32:26.939Z,2.10
2023-08-12T17:35:28.511Z,2.50
2023-08-12T17:38:30.306Z,2.53
2023-08-12T17:41:32.074Z,2.60
2023-08-12T17:44:33.728Z,6.68
2023-08-12T17:47:35.291Z,4.63
2023-08-12T17:50:36.913Z,3.10
2023-08-12T17:53:38.498Z,2.08
2023-08-12T17:56:40.084Z,3.60
2023-08-12T17:59:41.655Z,2.50
2023-08-12T18:02:43.361Z,3.33
2023-08-12T18:05:45.167Z,5.75
2023-08-12T18:08:47.267Z,6.03
2023-08-12T18:11:48.865Z,3.28
2023-08-12T18:14:50.509Z,4.28
2023-08-12T18:17:52.221Z,3.00
2023-08-12T18:20:53.831Z,2.55
2023-08-12T18:23:55.771Z,3.60
2023-08-12T18:26:57.478Z,2.35
2023-08-12T18:29:59.120Z,1.35
2023-08-12T18:33:04.117Z,1.70
2023-08-12T18:36:06.106Z,1.58
2023-08-12T18:39:07.961Z,2.40
2023-08-12T18:42:11.454Z,3.83
2023-08-12T18:45:13.452Z,1.58
2023-08-12T18:48:15.055Z,1.55
2023-08-12T18:51:16.995Z,1.55
2023-08-12T18:54:18.578Z,1.92
2023-08-12T18:57:20.185Z,1.00
2023-08-12T19:00:21.913Z,1.67
2023-08-12T19:03:23.653Z,1.88
2023-08-12T19:06:25.391Z,2.38
2023-08-12T19:09:27.573Z,0.70
2023-08-12T19:12:29.207Z,1.52
2023-08-12T19:15:30.931Z,2.45
2023-08-12T19:18:32.611Z,1.00
2023-08-12T19:21:34.228Z,0.82
2023-08-12T19:24:35.961Z,1.10
2023-08-12T19:27:37.523Z,1.48
2023-08-12T19:30:39.084Z,1.17
2023-08-12T19:33:41.274Z,1.88
2023-08-12T19:36:42.889Z,2.30
2023-08-12T19:39:44.486Z,1.92
2023-08-12T19:42:46.422Z,1.75
2023-08-12T19:45:48.006Z,1.63
2023-08-12T19:48:49.782Z,1.70
2023-08-12T19:51:51.363Z,2.22
2023-08-12T19:54:52.942Z,1.35
2023-08-12T19:57:54.518Z,1.02
2023-08-12T20:00:56.214Z,1.10
2023-08-12T20:03:58.052Z,1.48
2023-08-12T20:06:59.915Z,1.60
2023-08-12T20:10:02.186Z,1.13
2023-08-12T20:13:04.032Z,3.20
2023-08-12T20:16:05.573Z,1.77
2023-08-12T20:19:07.185Z,1.85
2023-08-12T20:22:10.915Z,1.75
2023-08-12T20:25:14.367Z,1.88
2023-08-12T20:28:15.912Z,5.07
2023-08-12T20:31:17.575Z,2.58
2023-08-12T20:34:19.175Z,3.05
2023-08-12T20:37:20.929Z,2.70
2023-08-12T20:40:22.550Z,2.25
2023-08-12T20:43:25.315Z,2.50
2023-08-12T20:46:26.928Z,1.42
2023-08-12T20:49:28.543Z,2.63
2023-08-12T20:52:33.744Z,2.55
2023-08-12T20:55:35.671Z,1.25
2023-08-12T20:58:37.240Z,1.20
2023-08-12T21:01:38.928Z,2.33
2023-08-12T21:04:40.545Z,1.65
2023-08-12T21:07:42.307Z,1.92
2023-08-12T21:10:43.928Z,1.88
2023-08-12T21:13:45.533Z,2.08
2023-08-12T21:16:47.811Z,7.20
2023-08-12T21:19:49.407Z,3.03
2023-08-12T21:22:51.030Z,3.75
2023-08-12T21:25:52.636Z,3.60
2023-08-12T21:28:54.224Z,3.88
2023-08-12T21:31:55.867Z,1.98
2023-08-12T21:34:57.462Z,1.25
2023-08-12T21:37:59.207Z,2.90
2023-08-12T21:41:00.808Z,2.63
2023-08-12T21:44:02.612Z,2.33
2023-08-12T21:47:04.241Z,5.15
2023-08-12T21:50:06.648Z,3.70
2023-08-12T21:53:08.164Z,3.15
2023-08-12T21:56:10.368Z,3.20
2023-08-12T21:59:11.916Z,2.97
2023-08-12T22:02:23.021Z,2.00
2023-08-12T22:05:24.710Z,2.35
2023-08-12T22:08:26.315Z,3.75
2023-08-12T22:11:28.843Z,3.78
2023-08-12T22:14:30.772Z,4.68
2023-08-12T22:17:32.375Z,3.28
2023-08-12T22:20:34.088Z,3.47
2023-08-12T22:23:36.951Z,2.92
2023-08-12T22:26:38.482Z,1.90
2023-08-12T22:29:40.355Z,2.22
2023-08-12T22:32:43.554Z,3.15
2023-08-12T22:35:45.224Z,1.98
2023-08-12T22:38:47.848Z,2.17
2023-08-12T22:41:50.250Z,3.10
2023-08-12T22:44:51.827Z,3.13
2023-08-12T22:47:53.511Z,6.38
2023-08-12T22:50:55.089Z,3.60
2023-08-12T22:53:58.783Z,1.63
2023-08-12T22:57:00.899Z,3.78
